Time;durP1;ratioP1;P1;durP2;ratioP2;P2;SDS_P1;SDS_P2;PMS_P1;PMS_P2;Temp;Humidity;BMP_temperature;BMP_pressure;BME280_temperature;BME280_humidity;BME280_pressure;Samples;Min_cycle;Max_cycle;Signal;HPM_P1;HPM_P2
2024/04/05 00:01:24;;;;;;;1.40;0.60;;;;;;;12.39;66.84;99925.33;129497;1281;114871;-67
2024/04/05 00:04:28;;;;;;;1.50;0.70;;;;;;;12.34;66.90;99930.42;129509;1264;114822;-67
2024/04/05 00:07:30;;;;;;;1.60;0.60;;;;;;;12.28;66.98;99931.54;129595;1258;114898;-67
2024/04/05 00:10:33;;;;;;;1.30;0.50;;;;;;;12.20;67.31;99927.92;129366;1259;114816;-67
2024/04/05 00:13:35;;;;;;;1.20;0.40;;;;;;;12.10;66.98;99927.83;129415;1264;114781;-67
2024/04/05 00:16:37;;;;;;;1.50;0.70;;;;;;;12.00;67.25;99935.58;129450;1259;128423;-66
2024/04/05 00:19:41;;;;;;;1.70;0.40;;;;;;;11.89;66.92;99939.59;129428;1259;114823;-67
2024/04/05 00:22:43;;;;;;;1.20;0.70;;;;;;;11.78;67.01;99942.79;129676;1264;114804;-67
2024/04/05 00:25:45;;;;;;;1.30;0.60;;;;;;;11.66;66.98;99941.67;129779;1259;114758;-65
2024/04/05 00:28:47;;;;;;;2.00;0.50;;;;;;;11.53;67.30;99944.96;129528;1265;114789;-66
2024/04/05 00:31:49;;;;;;;2.10;0.50;;;;;;;11.42;67.55;99949.02;129604;1281;116357;-67
2024/04/05 00:34:51;;;;;;;2.00;0.50;;;;;;;11.31;67.68;99956.97;129506;1264;114818;-65
2024/04/05 00:37:53;;;;;;;2.40;1.00;;;;;;;11.20;67.86;99960.51;129623;1264;114979;-68
2024/04/05 00:40:55;;;;;;;1.40;0.40;;;;;;;11.09;67.92;99966.63;129401;1264;115212;-67
2024/04/05 00:43:57;;;;;;;1.90;0.80;;;;;;;10.98;68.10;99970.10;130109;1258;115297;-67
2024/04/05 00:46:59;;;;;;;2.90;0.40;;;;;;;10.88;67.95;99979.63;129469;1270;114847;-66
2024/04/05 00:50:02;;;;;;;1.70;0.80;;;;;;;10.78;68.05;99982.65;129517;1265;115433;-67
2024/04/05 00:53:04;;;;;;;2.30;0.40;;;;;;;10.70;68.57;99985.05;129536;1264;114723;-67
2024/04/05 00:56:07;;;;;;;1.90;0.90;;;;;;;10.62;68.54;99984.95;129479;1264;115222;-71
2024/04/05 00:59:10;;;;;;;1.90;0.70;;;;;;;10.55;68.78;99990.56;129709;1264;114765;-69
2024/04/05 01:02:15;;;;;;;1.50;0.80;;;;;;;10.47;68.81;99992.38;129439;1264;114871;-69
2024/04/05 01:05:17;;;;;;;1.80;0.60;;;;;;;10.40;68.78;99993.30;129922;1258;115265;-68
2024/04/05 01:08:18;;;;;;;2.10;0.60;;;;;;;10.34;69.06;99997.85;129775;1264;114858;-69
2024/04/05 01:11:20;;;;;;;1.60;0.90;;;;;;;10.28;69.19;100003.90;129958;1264;114806;-68
2024/04/05 01:14:23;;;;;;;3.10;1.60;;;;;;;10.21;69.50;100007.13;129701;1264;128463;-68
2024/04/05 01:17:24;;;;;;;1.80;0.70;;;;;;;10.16;69.60;100013.98;129644;1258;114811;-68
2024/04/05 01:20:29;;;;;;;1.20;0.60;;;;;;;10.09;69.86;100019.00;129785;1264;115275;-67
2024/04/05 01:23:38;;;;;;;1.10;0.40;;;;;;;10.03;70.08;100026.44;129618;1259;114934;-71
2024/04/05 01:26:40;;;;;;;2.80;0.80;;;;;;;9.96;70.06;100030.18;129433;1266;115001;-68
2024/04/05 01:29:42;;;;;;;1.60;0.70;;;;;;;9.89;70.23;100034.27;129946;1259;116327;-72
2024/04/05 01:32:52;;;;;;;3.90;0.60;;;;;;;9.82;70.35;100037.84;129964;1263;114752;-72
2024/04/05 01:35:53;;;;;;;2.30;0.90;;;;;;;9.77;70.52;100036.30;129755;1281;128513;-70
2024/04/05 01:38:55;;;;;;;3.00;0.50;;;;;;;9.72;70.71;100032.65;129767;1260;114799;-68
2024/04/05 01:41:57;;;;;;;1.20;0.70;;;;;;;9.65;70.95;100026.05;129881;1264;114737;-69
2024/04/05 01:44:59;;;;;;;1.80;0.90;;;;;;;9.58;71.07;100027.80;129795;1265;115136;-66
2024/04/05 01:48:00;;;;;;;1.50;0.50;;;;;;;9.53;71.21;100030.36;129788;1281;114720;-66
2024/04/05 01:51:02;;;;;;;1.20;0.90;;;;;;;9.47;71.48;100027.81;129836;1259;114877;-66
2024/04/05 01:54:04;;;;;;;2.80;0.70;;;;;;;9.40;71.64;100026.92;129640;1281;114701;-67
2024/04/05 01:57:06;;;;;;;1.60;0.80;;;;;;;9.32;71.64;100031.75;129458;1262;114814;-68
2024/04/05 02:00:09;;;;;;;1.30;0.60;;;;;;;9.25;71.94;100030.11;129510;1264;114804;-64
2024/04/05 02:03:11;;;;;;;2.10;0.80;;;;;;;9.17;71.79;100028.91;129751;1267;114964;-64
2024/04/05 02:06:14;;;;;;;2.30;1.10;;;;;;;9.09;72.05;100030.71;129785;1264;114813;-64
2024/04/05 02:09:16;;;;;;;3.10;1.10;;;;;;;9.01;72.40;100030.23;129452;1263;114741;-64
2024/04/05 02:12:20;;;;;;;4.30;0.80;;;;;;;8.92;72.45;100035.77;129224;1265;239525;-67
2024/04/05 02:15:21;;;;;;;2.50;0.80;;;;;;;8.84;72.74;100036.86;129335;1264;114932;-67
2024/04/05 02:18:23;;;;;;;2.30;0.90;;;;;;;8.77;73.11;100034.90;129431;1262;115499;-68
2024/04/05 02:21:25;;;;;;;3.10;1.00;;;;;;;8.69;73.03;100033.66;129422;1281;114848;-63
2024/04/05 02:24:27;;;;;;;2.30;1.00;;;;;;;8.63;73.38;100032.32;129215;1267;114893;-67
2024/04/05 02:27:29;;;;;;;2.90;1.20;;;;;;;8.58;73.61;100035.74;129446;1262;116420;-63
2024/04/05 02:30:31;;;;;;;2.90;1.30;;;;;;;8.54;73.63;100042.36;129732;1259;115175;-66
2024/04/05 02:33:33;;;;;;;3.90;1.70;;;;;;;8.47;73.80;100045.46;129476;1264;114743;-67
2024/04/05 02:36:34;;;;;;;5.90;1.40;;;;;;;8.40;73.83;100044.01;129465;1262;114804;-69
2024/04/05 02:39:36;;;;;;;2.30;1.30;;;;;;;8.32;74.00;100046.85;129705;1265;114760;-70
2024/04/05 02:42:38;;;;;;;3.30;1.30;;;;;;;8.24;74.47;100045.94;129636;1259;127575;-69
2024/04/05 02:45:40;;;;;;;1.70;1.10;;;;;;;8.19;74.44;100047.79;129687;1259;114841;-70
2024/04/05 02:48:41;;;;;;;2.50;1.20;;;;;;;8.15;74.95;100048.84;129775;1263;115218;-70
2024/04/05 02:51:43;;;;;;;3.20;0.90;;;;;;;8.09;74.71;100050.70;129786;1264;115114;-68
2024/04/05 02:54:45;;;;;;;4.10;1.40;;;;;;;8.03;75.06;100056.10;129806;1259;114839;-69
2024/04/05 02:57:47;;;;;;;2.40;1.30;;;;;;;7.99;75.15;100058.41;129775;1259;114768;-67
2024/04/05 03:00:54;;;;;;;3.90;1.00;;;;;;;7.95;75.25;100065.89;129756;1262;114779;-72
2024/04/05 03:03:56;;;;;;;4.00;1.80;;;;;;;7.92;75.77;100070.45;129734;1264;128500;-66
2024/04/05 03:06:57;;;;;;;3.50;1.40;;;;;;;7.90;75.59;100071.40;129654;1261;114806;-68
2024/04/05 03:09:59;;;;;;;1.50;1.00;;;;;;;7.88;75.81;100076.30;129569;1264;114833;-70
2024/04/05 03:13:01;;;;;;;4.30;1.40;;;;;;;7.86;76.13;100074.76;129317;1265;114962;-71
2024/04/05 03:16:03;;;;;;;3.20;0.90;;;;;;;7.86;76.14;100077.08;129794;1264;114704;-72
2024/04/05 03:19:05;;;;;;;4.60;1.60;;;;;;;7.85;76.39;100076.06;129790;1264;114743;-71
2024/04/05 03:22:08;;;;;;;2.10;1.20;;;;;;;7.86;76.23;100081.36;130077;1274;114781;-74
2024/04/05 03:25:10;;;;;;;5.00;1.30;;;;;;;7.87;76.54;100086.12;129607;1277;114757;-72
2024/04/05 03:28:12;;;;;;;3.60;1.60;;;;;;;7.89;76.57;100091.02;129891;1264;115217;-72
2024/04/05 03:31:14;;;;;;;3.60;1.40;;;;;;;7.91;76.94;100093.77;129746;1264;116144;-69
2024/04/05 03:34:16;;;;;;;2.70;1.60;;;;;;;7.95;77.21;100095.23;129801;1263;114715;-68
2024/04/05 03:37:17;;;;;;;4.90;1.80;;;;;;;7.97;77.15;100092.44;129784;1262;114798;-67
2024/04/05 03:40:20;;;;;;;3.70;2.60;;;;;;;8.00;77.05;100095.20;129604;1261;114726;-68
2024/04/05 03:43:21;;;;;;;4.00;2.10;;;;;;;8.02;77.28;100098.45;129966;1268;114853;-67
2024/04/05 03:46:23;;;;;;;4.90;2.50;;;;;;;8.02;77.47;100097.39;129468;1265;114909;-67
2024/04/05 03:49:28;;;;;;;5.60;2.20;;;;;;;8.01;77.43;100100.63;129585;1281;114755;-69
2024/04/05 03:52:30;;;;;;;5.20;3.10;;;;;;;8.00;77.32;100104.23;130074;1281;114805;-67
2024/04/05 03:55:32;;;;;;;5.60;2.70;;;;;;;7.99;77.35;100106.77;129879;1264;115375;-69
2024/04/05 03:58:34;;;;;;;5.60;2.70;;;;;;;7.98;77.62;100113.56;129798;1279;115111;-68
2024/04/05 04:01:35;;;;;;;3.90;2.30;;;;;;;7.98;77.97;100119.27;129729;1264;114719;-68
2024/04/05 04:04:37;;;;;;;7.40;3.50;;;;;;;7.98;77.87;100116.25;129807;1280;115240;-70
2024/04/05 04:07:39;;;;;;;5.80;2.90;;;;;;;7.96;78.23;100117.20;129732;1263;114772;-70
2024/04/05 04:10:42;;;;;;;6.70;3.20;;;;;;;7.96;77.76;100119.71;129511;1281;129707;-71
2024/04/05 04:13:44;;;;;;;6.00;2.90;;;;;;;7.95;78.11;100126.69;129438;1276;114851;-69
2024/04/05 04:16:46;;;;;;;6.70;3.80;;;;;;;7.93;78.38;100131.05;129541;1263;114738;-69
2024/04/05 04:19:48;;;;;;;8.20;2.90;;;;;;;7.93;78.21;100132.47;129815;1259;115479;-69
2024/04/05 04:22:50;;;;;;;7.00;2.90;;;;;;;7.93;78.22;100136.21;129250;1269;114849;-69
2024/04/05 04:25:53;;;;;;;5.70;2.80;;;;;;;7.95;78.71;100136.83;129856;1264;114801;-68
2024/04/05 04:28:57;;;;;;;7.50;3.20;;;;;;;7.99;78.85;100141.48;129522;1259;114820;-66
2024/04/05 04:31:59;;;;;;;8.00;3.50;;;;;;;8.02;79.04;100137.60;129872;1265;114746;-73
2024/04/05 04:35:03;;;;;;;6.30;2.80;;;;;;;8.08;78.89;100138.95;129962;1272;114920;-68
2024/04/05 04:38:05;;;;;;;8.00;3.90;;;;;;;8.16;78.96;100142.36;129616;1264;114878;-71
2024/04/05 04:41:07;;;;;;;5.50;3.20;;;;;;;8.25;79.18;100146.77;129869;1261;115298;-64
2024/04/05 04:44:08;;;;;;;5.60;3.20;;;;;;;8.36;79.52;100147.04;129460;1263;114739;-64
2024/04/05 04:47:10;;;;;;;5.50;3.20;;;;;;;8.49;79.91;100150.25;129517;1264;114698;-64
2024/04/05 04:50:12;;;;;;;7.40;3.30;;;;;;;8.63;79.99;100152.33;129982;1270;114708;-65
2024/04/05 04:53:14;;;;;;;3.60;2.60;;;;;;;8.77;80.14;100159.36;129591;1264;114835;-65
2024/04/05 04:56:16;;;;;;;5.10;3.30;;;;;;;8.93;80.41;100158.98;129876;1264;114756;-68
2024/04/05 04:59:18;;;;;;;3.60;2.80;;;;;;;9.11;80.15;100165.31;129880;1263;114893;-72
2024/04/05 05:02:19;;;;;;;8.00;3.20;;;;;;;9.28;80.24;100164.73;129632;1264;116503;-71
2024/04/05 05:05:21;;;;;;;4.40;3.20;;;;;;;9.46;80.21;100166.38;129720;1263;115131;-68
2024/04/05 05:08:23;;;;;;;4.70;2.80;;;;;;;9.64;80.15;100172.66;129553;1265;114838;-67
2024/04/05 05:11:28;;;;;;;3.90;2.80;;;;;;;9.82;80.01;100175.54;129235;1267;128495;-66
2024/04/05 05:14:30;;;;;;;7.60;2.80;;;;;;;10.04;80.20;100177.86;129592;1274;114901;-68
2024/04/05 05:17:32;;;;;;;3.90;2.80;;;;;;;10.29;79.73;100178.95;129536;1265;114756;-65
2024/04/05 05:20:35;;;;;;;3.90;2.90;;;;;;;10.52;79.96;100182.81;129591;1264;115199;-67
2024/04/05 05:23:37;;;;;;;3.70;2.50;;;;;;;10.71;79.61;100189.73;129676;1281;114755;-69
2024/04/05 05:26:39;;;;;;;3.20;2.30;;;;;;;10.88;79.40;100195.63;129310;1259;115520;-68
2024/04/05 05:29:41;;;;;;;3.80;2.10;;;;;;;11.04;79.10;100198.18;129390;1265;114874;-68
2024/04/05 05:32:43;;;;;;;4.30;2.30;;;;;;;11.18;78.62;100202.79;129897;1259;115012;-63
2024/04/05 05:35:45;;;;;;;4.10;2.80;;;;;;;11.32;78.37;100202.05;129398;1267;114766;-67
2024/04/05 05:38:47;;;;;;;2.60;2.30;;;;;;;11.46;78.24;100201.46;129659;1263;114788;-68
2024/04/05 05:41:49;;;;;;;3.50;1.90;;;;;;;11.57;77.86;100203.55;129791;1266;114701;-68
2024/04/05 05:44:51;;;;;;;6.10;2.40;;;;;;;11.65;77.60;100209.35;129579;1264;115036;-69
2024/04/05 05:47:53;;;;;;;3.30;2.00;;;;;;;11.69;76.87;100218.63;129736;1259;114821;-69
2024/04/05 05:50:55;;;;;;;6.10;2.00;;;;;;;11.70;77.02;100217.50;129561;1263;114982;-69
2024/04/05 05:53:57;;;;;;;5.10;2.00;;;;;;;11.73;77.26;100225.25;129159;1267;128156;-68
2024/04/05 05:56:59;;;;;;;3.90;1.80;;;;;;;11.74;77.00;100219.31;129765;1264;115437;-66
2024/04/05 06:00:01;;;;;;;5.00;2.50;;;;;;;11.76;76.41;100219.89;129766;1259;115203;-69
2024/04/05 06:03:03;;;;;;;6.20;2.90;;;;;;;11.79;76.56;100222.55;129784;1258;114796;-69
2024/04/05 06:06:07;;;;;;;4.90;2.20;;;;;;;11.85;76.16;100223.14;129490;1263;115280;-67
2024/04/05 06:09:09;;;;;;;5.20;2.20;;;;;;;11.94;75.89;100221.41;129607;1264;114692;-68
2024/04/05 06:12:11;;;;;;;3.40;2.00;;;;;;;12.08;75.86;100228.98;129499;1281;114849;-68
2024/04/05 06:15:13;;;;;;;4.10;1.60;;;;;;;12.22;75.91;100225.88;129712;1259;114801;-69
2024/04/05 06:18:16;;;;;;;4.50;1.80;;;;;;;12.36;75.68;100225.85;129472;1281;114859;-69
2024/04/05 06:21:18;;;;;;;4.80;2.00;;;;;;;12.49;75.54;100229.72;129441;1264;114716;-65
2024/04/05 06:24:20;;;;;;;4.30;1.60;;;;;;;12.64;75.27;100229.73;129983;1259;115209;-69
2024/04/05 06:27:22;;;;;;;6.40;2.50;;;;;;;12.79;75.29;100232.59;129561;1265;114852;-69
2024/04/05 06:30:24;;;;;;;9.00;2.10;;;;;;;12.92;74.75;100234.15;129677;1259;114759;-70
2024/04/05 06:33:26;;;;;;;4.20;1.80;;;;;;;13.06;74.57;100235.30;129739;1259;114824;-69
2024/04/05 06:36:29;;;;;;;3.00;1.90;;;;;;;13.19;74.40;100232.89;129508;1281;128127;-70
2024/04/05 06:39:34;;;;;;;5.00;2.00;;;;;;;13.38;74.19;100233.90;129719;1262;114756;-70
2024/04/05 06:42:36;;;;;;;4.90;1.70;;;;;;;13.55;73.91;100238.59;129440;1259;114816;-65
2024/04/05 06:45:38;;;;;;;7.60;2.00;;;;;;;13.74;73.47;100240.58;129780;1263;114721;-65
2024/04/05 06:48:43;;;;;;;12.20;4.50;;;;;;;13.99;73.63;100240.42;129765;1264;115064;-64
2024/04/05 06:51:45;;;;;;;8.00;3.80;;;;;;;14.26;73.00;100241.59;129698;1265;115344;-65
2024/04/05 06:54:46;;;;;;;6.00;1.90;;;;;;;14.53;72.93;100248.11;129876;1259;114778;-69
2024/04/05 06:57:50;;;;;;;5.00;1.80;;;;;;;14.78;72.34;100249.13;129742;1265;114768;-64
2024/04/05 07:00:52;;;;;;;4.00;1.40;;;;;;;14.96;71.63;100253.83;129399;1274;116685;-63
2024/04/05 07:03:54;;;;;;;4.10;1.80;;;;;;;15.24;71.36;100252.11;129825;1259;114811;-63
2024/04/05 07:06:56;;;;;;;5.70;1.60;;;;;;;15.61;71.26;100250.58;129839;1259;114740;-68
2024/04/05 07:09:58;;;;;;;4.80;1.90;;;;;;;16.10;70.75;100253.23;129793;1259;114776;-70
2024/04/05 07:13:00;;;;;;;5.30;1.30;;;;;;;16.60;70.16;100248.63;129727;1260;115229;-69
2024/04/05 07:16:03;;;;;;;4.20;1.40;;;;;;;17.03;69.08;100247.91;129622;1259;115890;-68
2024/04/05 07:19:05;;;;;;;5.70;1.50;;;;;;;17.34;68.39;100250.87;129550;1259;127751;-70
2024/04/05 07:22:09;;;;;;;5.20;1.50;;;;;;;17.64;67.41;100253.21;129783;1264;114764;-68
2024/04/05 07:25:11;;;;;;;4.80;1.60;;;;;;;17.89;66.53;100259.15;129466;1259;115361;-68
2024/04/05 07:28:13;;;;;;;4.70;1.30;;;;;;;18.14;65.89;100254.71;129519;1264;114762;-68
2024/04/05 07:31:15;;;;;;;5.30;1.30;;;;;;;18.37;65.44;100263.27;129340;1265;114808;-68
2024/04/05 07:34:17;;;;;;;4.20;1.10;;;;;;;18.59;64.75;100267.77;129787;1264;114737;-68
2024/04/05 07:37:20;;;;;;;9.10;1.30;;;;;;;18.92;63.94;100267.68;129557;1259;114754;-71
2024/04/05 07:40:23;;;;;;;4.10;1.30;;;;;;;19.22;63.46;100276.23;129491;1265;128848;-68
2024/04/05 07:43:25;;;;;;;4.80;1.10;;;;;;;19.54;62.86;100281.29;129457;1265;114857;-68
2024/04/05 07:46:27;;;;;;;3.90;1.40;;;;;;;19.91;62.56;100282.17;129406;1259;114798;-68
2024/04/05 07:49:29;;;;;;;2.20;1.20;;;;;;;20.27;61.53;100281.36;129543;1263;114850;-69
2024/04/05 07:52:31;;;;;;;9.10;1.30;;;;;;;20.39;60.36;100277.77;129344;1265;114749;-67
2024/04/05 07:55:32;;;;;;;4.60;1.90;;;;;;;20.56;60.19;100273.85;129760;1259;114766;-68
2024/04/05 07:58:34;;;;;;;5.60;1.10;;;;;;;20.77;59.39;100272.85;129847;1263;114750;-67
2024/04/05 08:01:36;;;;;;;4.40;1.70;;;;;;;20.89;58.87;100266.84;129495;1280;127603;-66
2024/04/05 08:04:38;;;;;;;5.70;1.00;;;;;;;20.96;58.13;100272.86;129710;1281;115127;-67
2024/04/05 08:07:40;;;;;;;5.00;1.60;;;;;;;21.02;57.82;100274.45;129463;1274;114792;-67
2024/04/05 08:10:42;;;;;;;5.20;1.00;;;;;;;21.20;57.04;100269.71;129822;1262;114740;-69
2024/04/05 08:13:45;;;;;;;5.40;1.10;;;;;;;21.28;56.20;100274.11;129832;1264;114752;-68
2024/04/05 08:16:47;;;;;;;5.50;1.10;;;;;;;21.40;55.83;100280.93;129736;1263;114799;-69
2024/04/05 08:19:51;;;;;;;3.20;1.00;;;;;;;21.51;55.10;100282.80;129848;1265;114771;-67
2024/04/05 08:22:53;;;;;;;4.40;1.10;;;;;;;21.54;54.50;100280.98;129673;1264;129663;-67
2024/04/05 08:25:55;;;;;;;4.80;1.10;;;;;;;21.75;54.47;100279.36;129698;1259;114743;-67
2024/04/05 08:28:56;;;;;;;6.00;1.30;;;;;;;22.07;53.83;100274.85;129611;1263;115436;-68
2024/04/05 08:31:58;;;;;;;6.70;1.80;;;;;;;22.42;53.52;100266.83;129822;1274;114794;-68
2024/04/05 08:35:00;;;;;;;4.00;1.20;;;;;;;22.74;53.00;100274.95;129964;1264;114841;-68
2024/04/05 08:38:03;;;;;;;5.10;1.20;;;;;;;22.97;52.15;100275.58;129902;1265;114748;-68
2024/04/05 08:41:11;;;;;;;4.80;1.00;;;;;;;23.10;51.71;100275.29;129839;1264;114824;-67
2024/04/05 08:44:13;;;;;;;4.30;1.00;;;;;;;23.11;50.89;100277.44;129171;1265;128236;-68
2024/04/05 08:47:17;;;;;;;5.00;1.10;;;;;;;23.05;50.70;100271.39;129785;1264;114830;-67
2024/04/05 08:50:19;;;;;;;5.60;1.20;;;;;;;23.00;50.31;100271.59;129773;1281;114764;-67
2024/04/05 08:53:20;;;;;;;4.90;1.00;;;;;;;22.88;49.91;100275.00;129891;1259;114757;-66
2024/04/05 08:56:23;;;;;;;5.10;1.30;;;;;;;22.76;49.77;100272.92;129716;1281;114823;-66
2024/04/05 08:59:28;;;;;;;5.20;1.10;;;;;;;22.68;49.30;100276.49;129319;1275;115507;-66
2024/04/05 09:02:31;;;;;;;4.40;1.30;;;;;;;22.49;49.13;100278.39;129776;1263;128843;-68
2024/04/05 09:05:33;;;;;;;6.20;1.40;;;;;;;22.31;48.75;100276.28;129785;1264;115104;-67
2024/04/05 09:08:46;;;;;;;5.20;1.20;;;;;;;22.22;48.96;100274.45;129821;1263;114787;-67
2024/04/05 09:11:48;;;;;;;5.60;1.20;;;;;;;22.24;48.76;100277.91;129790;1259;114823;-67
2024/04/05 09:14:59;;;;;;;6.80;1.40;;;;;;;22.28;49.00;100276.63;129784;1264;114827;-67
2024/04/05 09:18:01;;;;;;;5.60;1.30;;;;;;;22.41;49.00;100276.27;129841;1265;114760;-68
2024/04/05 09:21:10;;;;;;;3.80;1.20;;;;;;;22.48;48.26;100273.95;129733;1269;114885;-69
2024/04/05 09:24:12;;;;;;;5.60;1.30;;;;;;;22.42;48.10;100276.08;129399;1275;114821;-67
2024/04/05 09:27:18;;;;;;;6.20;1.40;;;;;;;22.38;47.99;100278.69;129736;1277;114754;-68
2024/04/05 09:30:21;;;;;;;4.50;1.00;;;;;;;22.46;48.19;100275.52;129534;1259;114817;-65
2024/04/05 09:33:23;;;;;;;4.60;1.40;;;;;;;22.49;46.86;100271.80;129504;1281;114836;-66
2024/04/05 09:36:25;;;;;;;4.10;1.10;;;;;;;22.37;46.96;100271.57;129976;1277;114754;-67
2024/04/05 09:39:27;;;;;;;4.50;1.10;;;;;;;22.22;46.21;100273.33;129144;1281;126688;-66
2024/04/05 09:42:29;;;;;;;6.40;1.20;;;;;;;21.99;45.63;100275.60;129449;1259;114878;-66
2024/04/05 09:45:31;;;;;;;4.60;1.00;;;;;;;21.70;45.26;100277.52;129359;1275;114848;-67
2024/04/05 09:48:34;;;;;;;6.60;1.40;;;;;;;21.45;45.40;100282.61;129745;1265;114886;-68
2024/04/05 09:51:46;;;;;;;8.60;1.10;;;;;;;21.19;45.22;100281.59;129987;1265;114826;-67
2024/04/05 09:54:50;;;;;;;3.50;1.00;;;;;;;21.03;45.60;100275.83;129755;1264;114926;-68
2024/04/05 09:57:52;;;;;;;5.40;1.20;;;;;;;21.01;45.72;100274.23;129929;1263;129740;-65
2024/04/05 10:00:54;;;;;;;4.60;1.00;;;;;;;21.01;45.93;100276.77;129222;1275;114852;-66
2024/04/05 10:03:56;;;;;;;6.80;1.20;;;;;;;21.11;45.86;100269.12;129384;1264;114827;-68
2024/04/05 10:07:05;;;;;;;7.40;1.20;;;;;;;21.20;45.61;100262.27;129296;1280;114901;-68
2024/04/05 10:10:09;;;;;;;6.60;1.40;;;;;;;21.32;45.76;100265.01;129949;1264;116400;-65
2024/04/05 10:13:17;;;;;;;5.80;1.20;;;;;;;21.45;45.78;100260.67;129270;1277;114853;-64
2024/04/05 10:16:23;;;;;;;3.60;0.80;;;;;;;21.47;45.20;100258.98;129460;1263;128543;-65
2024/04/05 10:19:30;;;;;;;6.50;1.20;;;;;;;21.45;45.03;100255.18;129469;1264;115094;-66
2024/04/05 10:22:33;;;;;;;5.50;1.30;;;;;;;21.42;45.06;100257.60;129408;1262;115440;-65
2024/04/05 10:25:34;;;;;;;5.80;1.60;;;;;;;21.47;45.02;100258.60;129381;1263;114764;-65
2024/04/05 10:28:37;;;;;;;7.00;1.30;;;;;;;21.56;45.33;100262.44;129328;1280;115125;-64
2024/04/05 10:31:39;;;;;;;3.70;1.00;;;;;;;21.72;45.65;100262.44;129519;1281;114747;-65
2024/04/05 10:34:41;;;;;;;3.30;0.80;;;;;;;21.87;45.88;100259.02;129260;1274;114753;-65
2024/04/05 10:37:43;;;;;;;7.30;1.50;;;;;;;21.94;45.53;100260.47;129285;1266;114747;-65
2024/04/05 10:40:59;;;;;;;4.70;1.10;;;;;;;21.97;45.44;100265.23;129283;1263;115378;-65
2024/04/05 10:44:04;;;;;;;8.30;1.50;;;;;;;21.97;45.32;100270.91;129196;1267;114832;-64
2024/04/05 10:47:09;;;;;;;6.50;2.10;;;;;;;21.97;45.21;100269.30;130016;1262;115255;-65
2024/04/05 10:50:12;;;;;;;4.60;1.20;;;;;;;22.04;45.11;100267.55;129651;1264;127920;-66
2024/04/05 10:53:18;;;;;;;4.50;1.20;;;;;;;22.09;44.64;100276.34;129681;1265;115008;-66
2024/04/05 10:56:20;;;;;;;4.20;0.90;;;;;;;22.19;45.06;100274.96;129782;1268;114856;-64
2024/04/05 10:59:22;;;;;;;6.50;1.10;;;;;;;22.38;44.94;100273.30;129450;1277;114758;-64
2024/04/05 11:02:24;;;;;;;6.70;1.50;;;;;;;22.55;44.50;100268.35;129355;1278;116332;-65
2024/04/05 11:05:26;;;;;;;8.10;1.90;;;;;;;22.72;44.48;100266.99;129409;1281;114759;-65
2024/04/05 11:08:28;;;;;;;7.00;1.20;;;;;;;22.92;44.32;100268.98;129679;1281;114806;-64
2024/04/05 11:11:30;;;;;;;7.30;0.90;;;;;;;23.00;43.53;100261.38;129467;1272;115377;-66
2024/04/05 11:14:32;;;;;;;4.40;1.20;;;;;;;23.05;43.76;100256.17;129416;1277;114766;-63
2024/04/05 11:17:35;;;;;;;6.00;1.30;;;;;;;23.06;43.10;100258.17;129558;1281;114771;-63
2024/04/05 11:20:41;;;;;;;4.40;1.20;;;;;;;23.08;43.23;100263.65;129426;1278;114823;-64
2024/04/05 11:23:51;;;;;;;3.40;1.00;;;;;;;23.13;42.99;100263.58;129459;1261;115070;-65
2024/04/05 11:26:53;;;;;;;6.40;1.20;;;;;;;23.16;42.80;100262.15;129267;1281;127934;-71
2024/04/05 11:29:56;;;;;;;5.70;1.40;;;;;;;23.16;42.82;100264.98;130083;1275;114774;-71
2024/04/05 11:32:58;;;;;;;4.80;1.30;;;;;;;23.19;42.85;100265.29;129956;1259;114732;-71
2024/04/05 11:36:00;;;;;;;5.00;0.90;;;;;;;23.19;42.78;100266.94;129343;1264;115306;-71
2024/04/05 11:39:02;;;;;;;3.70;1.00;;;;;;;23.16;42.56;100264.44;129706;1264;115438;-72
2024/04/05 11:42:04;;;;;;;4.10;1.20;;;;;;;23.09;42.20;100263.04;129794;1281;114724;-72
2024/04/05 11:45:07;;;;;;;6.10;1.60;;;;;;;22.96;42.32;100257.58;129924;1278;114759;-72
2024/04/05 11:48:10;;;;;;;3.30;1.00;;;;;;;22.81;42.05;100255.69;129845;1264;114753;-72
2024/04/05 11:51:12;;;;;;;6.40;1.00;;;;;;;22.58;42.12;100260.73;129789;1264;114860;-72
2024/04/05 11:54:14;;;;;;;4.60;1.10;;;;;;;22.37;42.05;100257.92;129703;1264;114830;-71
2024/04/05 11:57:16;;;;;;;5.90;1.40;;;;;;;22.19;42.45;100259.16;129461;1265;114763;-70
2024/04/05 12:00:18;;;;;;;5.30;1.50;;;;;;;22.05;42.36;100255.25;129649;1269;114945;-72
2024/04/05 12:03:20;;;;;;;4.70;1.00;;;;;;;21.96;42.32;100256.44;129857;1258;114871;-72
2024/04/05 12:06:22;;;;;;;6.30;1.30;;;;;;;21.97;42.82;100262.58;129846;1273;115129;-67
2024/04/05 12:09:24;;;;;;;5.30;1.00;;;;;;;21.99;42.82;100260.85;129705;1281;127553;-69
2024/04/05 12:12:28;;;;;;;5.70;1.60;;;;;;;22.00;42.84;100263.38;129591;1281;114804;-70
2024/04/05 12:15:31;;;;;;;3.60;1.20;;;;;;;21.99;42.97;100255.45;129868;1273;114774;-72
2024/04/05 12:18:33;;;;;;;6.20;1.40;;;;;;;22.00;43.08;100250.63;129654;1272;114760;-71
2024/04/05 12:21:35;;;;;;;5.90;1.10;;;;;;;22.10;42.83;100244.13;129421;1272;114794;-65
2024/04/05 12:24:38;;;;;;;6.00;1.40;;;;;;;22.23;42.75;100233.98;129574;1281;115018;-70
2024/04/05 12:27:40;;;;;;;9.30;1.60;;;;;;;22.42;43.08;100221.38;129762;1263;129047;-70
2024/04/05 12:30:42;;;;;;;5.50;1.30;;;;;;;22.59;42.79;100225.11;129758;1264;114744;-70
2024/04/05 12:33:45;;;;;;;6.00;1.60;;;;;;;22.70;42.60;100226.56;129741;1259;114752;-65
2024/04/05 12:36:50;;;;;;;6.70;1.60;;;;;;;22.81;42.59;100219.62;129223;1273;114743;-66
2024/04/05 12:39:54;;;;;;;5.90;1.80;;;;;;;22.92;42.39;100211.78;129275;1264;114851;-70
2024/04/05 12:42:57;;;;;;;3.70;1.30;;;;;;;22.96;42.21;100214.61;129534;1277;114894;-64
2024/04/05 12:46:01;;;;;;;5.80;1.30;;;;;;;22.98;42.27;100210.04;129382;1281;114838;-67
2024/04/05 12:49:03;;;;;;;5.30;1.10;;;;;;;22.90;41.57;100203.61;129512;1272;114759;-66
2024/04/05 12:52:06;;;;;;;4.60;0.90;;;;;;;22.80;41.54;100195.00;129985;1264;114750;-70
2024/04/05 12:55:07;;;;;;;4.70;1.20;;;;;;;22.72;42.03;100188.31;129697;1279;114749;-70
2024/04/05 12:58:09;;;;;;;4.70;1.10;;;;;;;22.74;41.92;100189.67;129857;1282;115371;-70
2024/04/05 13:01:12;;;;;;;4.90;1.00;;;;;;;22.72;42.02;100196.85;129775;1261;114822;-72
2024/04/05 13:04:14;;;;;;;5.00;1.30;;;;;;;22.73;41.97;100197.99;129760;1279;114771;-71
2024/04/05 13:07:15;;;;;;;4.50;1.30;;;;;;;22.71;42.02;100197.73;129995;1272;114786;-71
2024/04/05 13:10:17;;;;;;;5.30;1.10;;;;;;;22.66;41.92;100191.85;129830;1263;115369;-67
2024/04/05 13:13:19;;;;;;;3.10;0.80;;;;;;;22.61;41.95;100193.95;129976;1281;114887;-70
2024/04/05 13:16:21;;;;;;;7.40;1.20;;;;;;;22.57;41.90;100188.88;129689;1267;114955;-68
2024/04/05 13:19:23;;;;;;;3.80;1.10;;;;;;;22.52;41.92;100188.15;129472;1263;115440;-70
2024/04/05 13:22:26;;;;;;;6.50;1.20;;;;;;;22.56;42.15;100183.03;129700;1264;114915;-67
2024/04/05 13:25:32;;;;;;;5.90;1.00;;;;;;;22.64;42.11;100185.63;129915;1263;114771;-71
2024/04/05 13:28:34;;;;;;;5.10;1.10;;;;;;;22.70;41.98;100176.64;129567;1281;114809;-70
2024/04/05 13:31:36;;;;;;;5.60;1.00;;;;;;;22.80;41.79;100169.44;129778;1272;115208;-71
2024/04/05 13:34:38;;;;;;;5.60;0.90;;;;;;;22.89;41.55;100167.31;129714;1281;114770;-70
2024/04/05 13:37:41;;;;;;;3.40;0.90;;;;;;;22.93;41.25;100168.52;129726;1270;114838;-68
2024/04/05 13:40:42;;;;;;;5.50;1.00;;;;;;;22.99;41.49;100165.95;129717;1272;114854;-67
2024/04/05 13:43:44;;;;;;;3.30;1.00;;;;;;;23.08;41.20;100160.77;129735;1272;114820;-71
2024/04/05 13:46:46;;;;;;;5.10;1.00;;;;;;;23.10;41.19;100149.04;129603;1261;128038;-71
2024/04/05 13:49:49;;;;;;;5.70;1.00;;;;;;;23.06;40.99;100149.45;129705;1272;114789;-69
2024/04/05 13:52:51;;;;;;;4.30;1.10;;;;;;;22.94;41.00;100152.02;129833;1272;114822;-69